sensor_id;sensor_type;location;lat;lon;timestamp;temperature;humidity
29731;DHT22;16639;51.488;0.152;2022-09-03T00:00:13;17.90;99.90
29731;DHT22;16639;51.488;0.152;2022-09-03T00:02:45;17.80;99.90
29731;DHT22;16639;51.488;0.152;2022-09-03T00:05:28;17.80;99.90
29731;DHT22;16639;51.488;0.152;2022-09-03T00:10:42;17.70;99.90
29731;DHT22;16639;51.488;0.152;2022-09-03T00:13:12;17.70;99.90
29731;DHT22;16639;51.488;0.152;2022-09-03T00:15:42;17.20;99.90
29731;DHT22;16639;51.488;0.152;2022-09-03T00:18:12;16.60;99.90
29731;DHT22;16639;51.488;0.152;2022-09-03T00:23:40;17.70;99.90
29731;DHT22;16639;51.488;0.152;2022-09-03T00:28:43;17.60;99.90
29731;DHT22;16639;51.488;0.152;2022-09-03T00:31:15;17.70;99.90
29731;DHT22;16639;51.488;0.152;2022-09-03T00:33:45;17.60;99.90
29731;DHT22;16639;51.488;0.152;2022-09-03T00:36:14;17.60;99.90
29731;DHT22;16639;51.488;0.152;2022-09-03T00:38:42;17.60;99.90
29731;DHT22;16639;51.488;0.152;2022-09-03T00:46:41;17.60;99.90
29731;DHT22;16639;51.488;0.152;2022-09-03T00:52:07;17.60;99.90
29731;DHT22;16639;51.488;0.152;2022-09-03T01:00:06;17.50;99.90
29731;DHT22;16639;51.488;0.152;2022-09-03T01:13:17;17.40;99.90
29731;DHT22;16639;51.488;0.152;2022-09-03T01:16:04;17.10;99.90
29731;DHT22;16639;51.488;0.152;2022-09-03T01:42:22;17.20;99.90
29731;DHT22;16639;51.488;0.152;2022-09-03T01:47:26;17.20;99.90
29731;DHT22;16639;51.488;0.152;2022-09-03T01:55:05;17.20;99.90
29731;DHT22;16639;51.488;0.152;2022-09-03T02:02:35;18.40;99.90
29731;DHT22;16639;51.488;0.152;2022-09-03T02:05:13;17.20;99.90
29731;DHT22;16639;51.488;0.152;2022-09-03T02:07:43;17.30;99.90
29731;DHT22;16639;51.488;0.152;2022-09-03T02:10:21;17.20;99.90
29731;DHT22;16639;51.488;0.152;2022-09-03T02:12:50;17.80;99.90
29731;DHT22;16639;51.488;0.152;2022-09-03T02:15:20;17.30;99.90
29731;DHT22;16639;51.488;0.152;2022-09-03T02:17:48;17.30;99.90
29731;DHT22;16639;51.488;0.152;2022-09-03T02:20:21;17.30;99.90
29731;DHT22;16639;51.488;0.152;2022-09-03T02:22:48;17.30;99.90
29731;DHT22;16639;51.488;0.152;2022-09-03T02:25:16;17.40;99.90
29731;DHT22;16639;51.488;0.152;2022-09-03T02:27:43;17.40;99.90
29731;DHT22;16639;51.488;0.152;2022-09-03T02:30:11;17.40;99.90
29731;DHT22;16639;51.488;0.152;2022-09-03T02:32:38;17.40;99.90
29731;DHT22;16639;51.488;0.152;2022-09-03T02:35:06;17.40;99.90
29731;DHT22;16639;51.488;0.152;2022-09-03T02:37:33;17.40;99.90
29731;DHT22;16639;51.488;0.152;2022-09-03T02:40:01;17.40;99.90
29731;DHT22;16639;51.488;0.152;2022-09-03T02:42:31;17.40;99.90
29731;DHT22;16639;51.488;0.152;2022-09-03T02:45:18;17.40;99.90
29731;DHT22;16639;51.488;0.152;2022-09-03T02:47:48;17.30;99.90
29731;DHT22;16639;51.488;0.152;2022-09-03T02:50:16;17.30;99.90
29731;DHT22;16639;51.488;0.152;2022-09-03T02:52:44;17.30;99.90
29731;DHT22;16639;51.488;0.152;2022-09-03T02:55:11;17.20;99.90
29731;DHT22;16639;51.488;0.152;2022-09-03T02:57:38;17.30;99.90
29731;DHT22;16639;51.488;0.152;2022-09-03T03:00:06;17.30;99.90
29731;DHT22;16639;51.488;0.152;2022-09-03T03:02:34;17.30;99.90
29731;DHT22;16639;51.488;0.152;2022-09-03T03:05:01;17.30;99.90
29731;DHT22;16639;51.488;0.152;2022-09-03T03:07:32;17.20;99.90
29731;DHT22;16639;51.488;0.152;2022-09-03T03:10:00;17.20;99.90
29731;DHT22;16639;51.488;0.152;2022-09-03T03:12:27;17.20;99.90
29731;DHT22;16639;51.488;0.152;2022-09-03T03:14:56;17.90;99.90
29731;DHT22;16639;51.488;0.152;2022-09-03T03:17:23;17.20;99.90
29731;DHT22;16639;51.488;0.152;2022-09-03T03:19:50;17.20;99.90
29731;DHT22;16639;51.488;0.152;2022-09-03T03:22:17;17.20;99.90
29731;DHT22;16639;51.488;0.152;2022-09-03T03:24:44;17.20;99.90
29731;DHT22;16639;51.488;0.152;2022-09-03T03:27:11;17.30;99.90
29731;DHT22;16639;51.488;0.152;2022-09-03T03:29:40;17.30;99.90
29731;DHT22;16639;51.488;0.152;2022-09-03T03:32:07;17.30;99.90
29731;DHT22;16639;51.488;0.152;2022-09-03T03:34:35;17.30;99.90
29731;DHT22;16639;51.488;0.152;2022-09-03T03:37:02;17.40;99.90
29731;DHT22;16639;51.488;0.152;2022-09-03T03:39:30;17.70;99.90
29731;DHT22;16639;51.488;0.152;2022-09-03T03:41:57;17.40;99.90
29731;DHT22;16639;51.488;0.152;2022-09-03T03:44:24;17.50;99.90
29731;DHT22;16639;51.488;0.152;2022-09-03T03:46:52;17.50;99.90
29731;DHT22;16639;51.488;0.152;2022-09-03T03:49:19;17.50;99.90
29731;DHT22;16639;51.488;0.152;2022-09-03T03:51:46;17.50;99.90
29731;DHT22;16639;51.488;0.152;2022-09-03T03:54:13;18.30;99.90
29731;DHT22;16639;51.488;0.152;2022-09-03T03:56:43;17.50;99.90
29731;DHT22;16639;51.488;0.152;2022-09-03T03:59:16;17.60;99.90
29731;DHT22;16639;51.488;0.152;2022-09-03T04:01:44;17.60;99.90
29731;DHT22;16639;51.488;0.152;2022-09-03T04:04:11;17.60;99.90
29731;DHT22;16639;51.488;0.152;2022-09-03T04:06:39;17.60;99.90
29731;DHT22;16639;51.488;0.152;2022-09-03T04:09:06;17.60;99.90
29731;DHT22;16639;51.488;0.152;2022-09-03T04:11:33;17.60;99.90
29731;DHT22;16639;51.488;0.152;2022-09-03T04:14:01;17.60;99.90
29731;DHT22;16639;51.488;0.152;2022-09-03T04:16:28;17.60;99.90
29731;DHT22;16639;51.488;0.152;2022-09-03T04:18:56;17.60;99.90
29731;DHT22;16639;51.488;0.152;2022-09-03T04:21:25;17.60;99.90
29731;DHT22;16639;51.488;0.152;2022-09-03T04:23:54;17.60;99.90
29731;DHT22;16639;51.488;0.152;2022-09-03T04:26:26;17.70;99.90
29731;DHT22;16639;51.488;0.152;2022-09-03T04:29:07;17.70;99.90
29731;DHT22;16639;51.488;0.152;2022-09-03T04:31:35;17.30;99.90
29731;DHT22;16639;51.488;0.152;2022-09-03T04:34:03;17.60;99.90
29731;DHT22;16639;51.488;0.152;2022-09-03T04:36:32;17.60;99.90
29731;DHT22;16639;51.488;0.152;2022-09-03T04:39:01;17.60;99.90
29731;DHT22;16639;51.488;0.152;2022-09-03T04:41:28;17.70;99.90
29731;DHT22;16639;51.488;0.152;2022-09-03T04:43:57;17.70;99.90
29731;DHT22;16639;51.488;0.152;2022-09-03T04:46:25;17.70;99.90
29731;DHT22;16639;51.488;0.152;2022-09-03T04:48:53;17.60;99.90
29731;DHT22;16639;51.488;0.152;2022-09-03T04:51:23;17.70;99.90
29731;DHT22;16639;51.488;0.152;2022-09-03T04:53:58;17.70;99.90
29731;DHT22;16639;51.488;0.152;2022-09-03T04:56:27;17.70;99.90
29731;DHT22;16639;51.488;0.152;2022-09-03T04:58:55;17.70;99.90
29731;DHT22;16639;51.488;0.152;2022-09-03T05:01:23;18.50;99.90
29731;DHT22;16639;51.488;0.152;2022-09-03T05:03:51;17.60;99.90
29731;DHT22;16639;51.488;0.152;2022-09-03T05:06:18;17.60;99.90
29731;DHT22;16639;51.488;0.152;2022-09-03T05:08:49;17.70;99.90
29731;DHT22;16639;51.488;0.152;2022-09-03T05:11:16;17.70;99.90
29731;DHT22;16639;51.488;0.152;2022-09-03T05:13:50;17.60;99.90
29731;DHT22;16639;51.488;0.152;2022-09-03T05:16:17;17.60;99.90
29731;DHT22;16639;51.488;0.152;2022-09-03T05:18:45;17.60;99.90
29731;DHT22;16639;51.488;0.152;2022-09-03T05:21:13;17.60;99.90
29731;DHT22;16639;51.488;0.152;2022-09-03T05:23:42;18.50;99.90
29731;DHT22;16639;51.488;0.152;2022-09-03T05:26:10;17.60;99.90
29731;DHT22;16639;51.488;0.152;2022-09-03T05:28:38;17.60;99.90
29731;DHT22;16639;51.488;0.152;2022-09-03T05:31:10;17.50;99.90
29731;DHT22;16639;51.488;0.152;2022-09-03T05:33:38;17.60;99.90
29731;DHT22;16639;51.488;0.152;2022-09-03T05:36:06;17.50;99.90
29731;DHT22;16639;51.488;0.152;2022-09-03T05:38:34;16.80;99.90
29731;DHT22;16639;51.488;0.152;2022-09-03T05:41:05;17.60;99.90
29731;DHT22;16639;51.488;0.152;2022-09-03T05:43:33;18.10;99.90
29731;DHT22;16639;51.488;0.152;2022-09-03T05:46:02;17.60;99.90
29731;DHT22;16639;51.488;0.152;2022-09-03T05:48:29;17.70;99.90
29731;DHT22;16639;51.488;0.152;2022-09-03T05:51:00;17.60;99.90
29731;DHT22;16639;51.488;0.152;2022-09-03T05:53:28;17.60;99.90
29731;DHT22;16639;51.488;0.152;2022-09-03T05:55:58;17.60;99.90
29731;DHT22;16639;51.488;0.152;2022-09-03T05:58:32;17.60;99.90
29731;DHT22;16639;51.488;0.152;2022-09-03T06:01:08;17.60;99.90
29731;DHT22;16639;51.488;0.152;2022-09-03T06:03:35;17.60;99.90
29731;DHT22;16639;51.488;0.152;2022-09-03T06:06:03;17.60;99.90
29731;DHT22;16639;51.488;0.152;2022-09-03T06:08:31;17.60;99.90
29731;DHT22;16639;51.488;0.152;2022-09-03T06:10:59;17.60;99.90
29731;DHT22;16639;51.488;0.152;2022-09-03T06:13:26;17.10;99.90
29731;DHT22;16639;51.488;0.152;2022-09-03T06:15:56;17.50;99.90
29731;DHT22;16639;51.488;0.152;2022-09-03T06:18:24;17.50;99.90
29731;DHT22;16639;51.488;0.152;2022-09-03T06:20:53;17.50;99.90
29731;DHT22;16639;51.488;0.152;2022-09-03T06:23:20;17.50;99.90
29731;DHT22;16639;51.488;0.152;2022-09-03T06:25:47;17.50;99.90
29731;DHT22;16639;51.488;0.152;2022-09-03T06:28:14;17.50;99.90
29731;DHT22;16639;51.488;0.152;2022-09-03T06:30:42;17.50;99.90
29731;DHT22;16639;51.488;0.152;2022-09-03T06:33:09;18.50;99.90
29731;DHT22;16639;51.488;0.152;2022-09-03T06:35:36;17.40;99.90
29731;DHT22;16639;51.488;0.152;2022-09-03T06:38:09;17.50;99.90
29731;DHT22;16639;51.488;0.152;2022-09-03T06:40:38;17.50;99.90
29731;DHT22;16639;51.488;0.152;2022-09-03T06:43:05;17.40;99.90
29731;DHT22;16639;51.488;0.152;2022-09-03T06:45:33;17.50;99.90
29731;DHT22;16639;51.488;0.152;2022-09-03T06:48:00;17.60;99.90
29731;DHT22;16639;51.488;0.152;2022-09-03T06:50:27;17.60;99.90
29731;DHT22;16639;51.488;0.152;2022-09-03T06:53:00;17.70;99.90
29731;DHT22;16639;51.488;0.152;2022-09-03T06:55:27;17.70;99.90
29731;DHT22;16639;51.488;0.152;2022-09-03T06:57:54;17.80;99.90
29731;DHT22;16639;51.488;0.152;2022-09-03T07:00:23;17.80;99.90
29731;DHT22;16639;51.488;0.152;2022-09-03T07:02:55;17.90;99.90
29731;DHT22;16639;51.488;0.152;2022-09-03T07:05:24;17.80;99.90
29731;DHT22;16639;51.488;0.152;2022-09-03T07:07:54;18.00;99.90
29731;DHT22;16639;51.488;0.152;2022-09-03T07:10:21;18.00;99.90
29731;DHT22;16639;51.488;0.152;2022-09-03T07:12:48;18.00;99.90
29731;DHT22;16639;51.488;0.152;2022-09-03T07:15:16;18.10;99.90
29731;DHT22;16639;51.488;0.152;2022-09-03T07:17:43;18.00;99.90
29731;DHT22;16639;51.488;0.152;2022-09-03T07:20:10;18.00;99.90
29731;DHT22;16639;51.488;0.152;2022-09-03T07:22:37;18.00;99.90
29731;DHT22;16639;51.488;0.152;2022-09-03T07:25:04;18.10;99.90
29731;DHT22;16639;51.488;0.152;2022-09-03T07:27:33;18.10;99.90
29731;DHT22;16639;51.488;0.152;2022-09-03T07:30:01;18.10;99.90
29731;DHT22;16639;51.488;0.152;2022-09-03T07:32:29;18.20;99.90
29731;DHT22;16639;51.488;0.152;2022-09-03T07:34:57;18.20;99.90
29731;DHT22;16639;51.488;0.152;2022-09-03T07:37:24;18.20;99.90
29731;DHT22;16639;51.488;0.152;2022-09-03T07:39:51;18.20;99.90
29731;DHT22;16639;51.488;0.152;2022-09-03T07:42:19;18.20;99.90
29731;DHT22;16639;51.488;0.152;2022-09-03T07:44:47;18.30;99.90
29731;DHT22;16639;51.488;0.152;2022-09-03T07:47:14;18.30;99.90
29731;DHT22;16639;51.488;0.152;2022-09-03T07:49:48;18.30;99.90
29731;DHT22;16639;51.488;0.152;2022-09-03T07:52:16;18.30;99.90
29731;DHT22;16639;51.488;0.152;2022-09-03T07:54:44;18.40;99.90
29731;DHT22;16639;51.488;0.152;2022-09-03T07:57:11;18.40;99.90
29731;DHT22;16639;51.488;0.152;2022-09-03T07:59:38;18.40;99.90
29731;DHT22;16639;51.488;0.152;2022-09-03T08:02:05;18.50;99.90
29731;DHT22;16639;51.488;0.152;2022-09-03T08:04:32;18.50;99.90
29731;DHT22;16639;51.488;0.152;2022-09-03T08:07:02;18.60;99.90
29731;DHT22;16639;51.488;0.152;2022-09-03T08:09:29;18.60;99.90
29731;DHT22;16639;51.488;0.152;2022-09-03T08:11:58;19.40;99.90
29731;DHT22;16639;51.488;0.152;2022-09-03T08:14:26;18.70;99.90
29731;DHT22;16639;51.488;0.152;2022-09-03T08:16:53;18.80;99.90
29731;DHT22;16639;51.488;0.152;2022-09-03T08:19:20;18.80;99.90
29731;DHT22;16639;51.488;0.152;2022-09-03T08:21:48;18.80;99.90
29731;DHT22;16639;51.488;0.152;2022-09-03T08:24:16;18.90;99.90
29731;DHT22;16639;51.488;0.152;2022-09-03T08:26:43;18.90;99.90
29731;DHT22;16639;51.488;0.152;2022-09-03T08:29:17;18.90;99.90
29731;DHT22;16639;51.488;0.152;2022-09-03T08:31:44;19.00;99.90
29731;DHT22;16639;51.488;0.152;2022-09-03T08:34:12;19.00;99.90
29731;DHT22;16639;51.488;0.152;2022-09-03T08:36:40;19.00;99.90
29731;DHT22;16639;51.488;0.152;2022-09-03T08:39:08;19.00;99.90
29731;DHT22;16639;51.488;0.152;2022-09-03T08:46:45;19.10;99.90
29731;DHT22;16639;51.488;0.152;2022-09-03T08:49:15;19.20;99.90
29731;DHT22;16639;51.488;0.152;2022-09-03T08:51:44;19.30;99.90
29731;DHT22;16639;51.488;0.152;2022-09-03T08:54:13;19.20;99.90
29731;DHT22;16639;51.488;0.152;2022-09-03T08:56:41;19.30;99.90
29731;DHT22;16639;51.488;0.152;2022-09-03T08:59:09;19.40;99.90
29731;DHT22;16639;51.488;0.152;2022-09-03T09:01:47;19.40;99.90
29731;DHT22;16639;51.488;0.152;2022-09-03T09:04:23;19.40;99.90
29731;DHT22;16639;51.488;0.152;2022-09-03T09:07:16;19.60;99.90
29731;DHT22;16639;51.488;0.152;2022-09-03T09:15:17;19.80;99.90
29731;DHT22;16639;51.488;0.152;2022-09-03T09:23:05;19.90;99.90
29731;DHT22;16639;51.488;0.152;2022-09-03T09:25:37;20.00;99.90
29731;DHT22;16639;51.488;0.152;2022-09-03T09:28:14;20.00;99.90
29731;DHT22;16639;51.488;0.152;2022-09-03T09:30:44;20.10;99.90
29731;DHT22;16639;51.488;0.152;2022-09-03T09:33:12;20.20;99.90
29731;DHT22;16639;51.488;0.152;2022-09-03T09:35:40;20.20;99.90
29731;DHT22;16639;51.488;0.152;2022-09-03T09:38:09;20.20;99.90
29731;DHT22;16639;51.488;0.152;2022-09-03T09:40:38;20.20;99.90
29731;DHT22;16639;51.488;0.152;2022-09-03T09:43:12;19.30;99.90
29731;DHT22;16639;51.488;0.152;2022-09-03T09:45:43;20.20;99.90
29731;DHT22;16639;51.488;0.152;2022-09-03T09:50:43;20.20;99.90
29731;DHT22;16639;51.488;0.152;2022-09-03T09:53:11;20.20;99.90
29731;DHT22;16639;51.488;0.152;2022-09-03T09:58:35;20.30;99.90
29731;DHT22;16639;51.488;0.152;2022-09-03T10:01:09;20.40;99.90
29731;DHT22;16639;51.488;0.152;2022-09-03T10:03:47;20.40;99.90
29731;DHT22;16639;51.488;0.152;2022-09-03T10:06:16;20.40;99.90
29731;DHT22;16639;51.488;0.152;2022-09-03T10:09:12;20.40;99.90
29731;DHT22;16639;51.488;0.152;2022-09-03T10:11:41;20.40;99.90
29731;DHT22;16639;51.488;0.152;2022-09-03T10:14:16;20.50;99.90
29731;DHT22;16639;51.488;0.152;2022-09-03T10:16:47;20.60;99.90
29731;DHT22;16639;51.488;0.152;2022-09-03T10:19:22;20.60;99.90
29731;DHT22;16639;51.488;0.152;2022-09-03T10:21:54;20.70;99.90
29731;DHT22;16639;51.488;0.152;2022-09-03T10:24:43;20.80;99.90
29731;DHT22;16639;51.488;0.152;2022-09-03T10:27:13;20.80;99.90
29731;DHT22;16639;51.488;0.152;2022-09-03T10:29:42;20.90;99.90
29731;DHT22;16639;51.488;0.152;2022-09-03T10:32:14;20.90;99.90
29731;DHT22;16639;51.488;0.152;2022-09-03T10:34:59;21.00;99.90
29731;DHT22;16639;51.488;0.152;2022-09-03T10:48:34;21.40;99.90
29731;DHT22;16639;51.488;0.152;2022-09-03T10:51:05;21.40;99.90
29731;DHT22;16639;51.488;0.152;2022-09-03T10:53:38;21.40;99.90
29731;DHT22;16639;51.488;0.152;2022-09-03T11:03:51;21.30;99.90
29731;DHT22;16639;51.488;0.152;2022-09-03T11:06:20;21.30;99.90
29731;DHT22;16639;51.488;0.152;2022-09-03T11:08:57;21.30;99.90
29731;DHT22;16639;51.488;0.152;2022-09-03T11:11:36;21.30;99.90
29731;DHT22;16639;51.488;0.152;2022-09-03T11:14:08;21.90;99.90
29731;DHT22;16639;51.488;0.152;2022-09-03T11:16:40;21.50;99.90
29731;DHT22;16639;51.488;0.152;2022-09-03T11:19:10;21.50;99.90
29731;DHT22;16639;51.488;0.152;2022-09-03T11:21:39;21.50;99.90
29731;DHT22;16639;51.488;0.152;2022-09-03T11:26:38;21.40;99.90
29731;DHT22;16639;51.488;0.152;2022-09-03T11:37:32;21.50;99.90
29731;DHT22;16639;51.488;0.152;2022-09-03T11:42:48;21.60;99.90
29731;DHT22;16639;51.488;0.152;2022-09-03T11:47:43;21.70;99.90
29731;DHT22;16639;51.488;0.152;2022-09-03T11:50:32;21.70;99.90
29731;DHT22;16639;51.488;0.152;2022-09-03T11:53:09;21.80;99.90
29731;DHT22;16639;51.488;0.152;2022-09-03T11:55:55;21.80;99.90
29731;DHT22;16639;51.488;0.152;2022-09-03T11:58:28;21.90;99.90
29731;DHT22;16639;51.488;0.152;2022-09-03T12:00:56;21.80;99.90
29731;DHT22;16639;51.488;0.152;2022-09-03T12:03:26;21.80;99.90
29731;DHT22;16639;51.488;0.152;2022-09-03T12:09:01;22.00;99.90
29731;DHT22;16639;51.488;0.152;2022-09-03T12:19:35;22.30;99.90
29731;DHT22;16639;51.488;0.152;2022-09-03T12:22:03;22.20;99.90
29731;DHT22;16639;51.488;0.152;2022-09-03T12:24:31;22.40;99.90
29731;DHT22;16639;51.488;0.152;2022-09-03T12:27:04;22.40;99.90
29731;DHT22;16639;51.488;0.152;2022-09-03T12:29:31;22.50;99.90
29731;DHT22;16639;51.488;0.152;2022-09-03T12:32:08;22.50;99.90
29731;DHT22;16639;51.488;0.152;2022-09-03T12:34:37;22.60;99.90
29731;DHT22;16639;51.488;0.152;2022-09-03T12:37:13;22.70;99.90
29731;DHT22;16639;51.488;0.152;2022-09-03T12:39:48;22.60;99.90
29731;DHT22;16639;51.488;0.152;2022-09-03T12:42:34;22.70;99.90
29731;DHT22;16639;51.488;0.152;2022-09-03T12:45:05;22.80;99.90
29731;DHT22;16639;51.488;0.152;2022-09-03T12:47:37;22.80;99.90
29731;DHT22;16639;51.488;0.152;2022-09-03T12:50:06;22.90;99.90
29731;DHT22;16639;51.488;0.152;2022-09-03T12:55:17;22.90;99.90
29731;DHT22;16639;51.488;0.152;2022-09-03T12:57:47;22.90;99.90
29731;DHT22;16639;51.488;0.152;2022-09-03T13:00:15;22.90;99.90
29731;DHT22;16639;51.488;0.152;2022-09-03T13:02:51;22.80;99.90
29731;DHT22;16639;51.488;0.152;2022-09-03T13:05:20;23.00;99.90
29731;DHT22;16639;51.488;0.152;2022-09-03T13:07:51;22.90;99.90
29731;DHT22;16639;51.488;0.152;2022-09-03T13:10:34;23.00;99.90
29731;DHT22;16639;51.488;0.152;2022-09-03T13:13:25;23.00;99.90
29731;DHT22;16639;51.488;0.152;2022-09-03T13:18:52;22.60;99.90
29731;DHT22;16639;51.488;0.152;2022-09-03T13:26:41;23.10;99.90
29731;DHT22;16639;51.488;0.152;2022-09-03T13:31:46;23.10;99.90
29731;DHT22;16639;51.488;0.152;2022-09-03T13:36:55;23.20;99.90
29731;DHT22;16639;51.488;0.152;2022-09-03T13:44:48;23.20;99.90
29731;DHT22;16639;51.488;0.152;2022-09-03T13:52:40;23.20;99.90
29731;DHT22;16639;51.488;0.152;2022-09-03T13:55:12;23.20;99.90
29731;DHT22;16639;51.488;0.152;2022-09-03T14:00:13;22.90;99.90
29731;DHT22;16639;51.488;0.152;2022-09-03T14:02:53;23.30;99.90
29731;DHT22;16639;51.488;0.152;2022-09-03T14:07:58;23.10;99.90
29731;DHT22;16639;51.488;0.152;2022-09-03T14:13:16;23.30;99.90
29731;DHT22;16639;51.488;0.152;2022-09-03T14:21:02;23.40;99.90
29731;DHT22;16639;51.488;0.152;2022-09-03T14:23:35;23.40;99.90
29731;DHT22;16639;51.488;0.152;2022-09-03T14:26:13;23.50;99.90
29731;DHT22;16639;51.488;0.152;2022-09-03T14:28:43;23.50;99.90
29731;DHT22;16639;51.488;0.152;2022-09-03T14:31:20;23.50;99.90
29731;DHT22;16639;51.488;0.152;2022-09-03T14:34:08;23.50;99.90
29731;DHT22;16639;51.488;0.152;2022-09-03T14:36:44;23.50;99.90
29731;DHT22;16639;51.488;0.152;2022-09-03T14:39:16;23.50;99.90
29731;DHT22;16639;51.488;0.152;2022-09-03T14:45:01;23.40;99.90
29731;DHT22;16639;51.488;0.152;2022-09-03T14:57:54;23.20;99.90
29731;DHT22;16639;51.488;0.152;2022-09-03T15:00:33;23.60;99.90
29731;DHT22;16639;51.488;0.152;2022-09-03T15:03:09;23.20;99.90
29731;DHT22;16639;51.488;0.152;2022-09-03T15:05:41;23.10;99.90
29731;DHT22;16639;51.488;0.152;2022-09-03T15:10:51;23.10;99.90
29731;DHT22;16639;51.488;0.152;2022-09-03T15:13:23;23.10;99.90
29731;DHT22;16639;51.488;0.152;2022-09-03T15:18:50;23.20;99.90
29731;DHT22;16639;51.488;0.152;2022-09-03T15:24:18;22.90;99.90
29731;DHT22;16639;51.488;0.152;2022-09-03T15:37:21;22.80;99.90
29731;DHT22;16639;51.488;0.152;2022-09-03T15:39:56;22.80;99.90
29731;DHT22;16639;51.488;0.152;2022-09-03T15:42:26;22.80;99.90
29731;DHT22;16639;51.488;0.152;2022-09-03T15:44:55;22.80;99.90
29731;DHT22;16639;51.488;0.152;2022-09-03T15:48:12;22.80;99.90
29731;DHT22;16639;51.488;0.152;2022-09-03T15:53:04;22.70;99.90
29731;DHT22;16639;51.488;0.152;2022-09-03T15:55:36;22.70;99.90
29731;DHT22;16639;51.488;0.152;2022-09-03T16:00:54;22.60;99.90
29731;DHT22;16639;51.488;0.152;2022-09-03T16:03:42;22.60;99.90
29731;DHT22;16639;51.488;0.152;2022-09-03T16:06:24;22.60;99.90
29731;DHT22;16639;51.488;0.152;2022-09-03T16:08:58;22.60;99.90
29731;DHT22;16639;51.488;0.152;2022-09-03T16:14:22;22.60;99.90
29731;DHT22;16639;51.488;0.152;2022-09-03T16:17:07;22.60;99.90
29731;DHT22;16639;51.488;0.152;2022-09-03T16:19:51;22.60;99.90
29731;DHT22;16639;51.488;0.152;2022-09-03T16:22:21;22.60;99.90
29731;DHT22;16639;51.488;0.152;2022-09-03T16:27:32;22.60;99.90
29731;DHT22;16639;51.488;0.152;2022-09-03T16:35:14;22.60;99.90
29731;DHT22;16639;51.488;0.152;2022-09-03T16:42:42;22.40;99.90
29731;DHT22;16639;51.488;0.152;2022-09-03T16:48:05;22.30;99.90
29731;DHT22;16639;51.488;0.152;2022-09-03T16:50:49;22.30;99.90
29731;DHT22;16639;51.488;0.152;2022-09-03T17:06:13;22.20;99.90
29731;DHT22;16639;51.488;0.152;2022-09-03T17:08:51;22.10;99.90
29731;DHT22;16639;51.488;0.152;2022-09-03T17:17:28;22.00;99.90
29731;DHT22;16639;51.488;0.152;2022-09-03T17:24:32;22.00;99.90
29731;DHT22;16639;51.488;0.152;2022-09-03T17:39:55;21.70;99.90
29731;DHT22;16639;51.488;0.152;2022-09-03T17:45:19;21.50;99.90
29731;DHT22;16639;51.488;0.152;2022-09-03T17:48:04;21.50;99.90
29731;DHT22;16639;51.488;0.152;2022-09-03T17:50:41;21.40;99.90
29731;DHT22;16639;51.488;0.152;2022-09-03T17:53:44;21.50;99.90
29731;DHT22;16639;51.488;0.152;2022-09-03T17:56:10;21.40;99.90
29731;DHT22;16639;51.488;0.152;2022-09-03T17:58:40;21.30;99.90
29731;DHT22;16639;51.488;0.152;2022-09-03T18:03:42;21.30;99.90
29731;DHT22;16639;51.488;0.152;2022-09-03T18:06:33;21.20;99.90
29731;DHT22;16639;51.488;0.152;2022-09-03T18:09:05;21.10;99.90
29731;DHT22;16639;51.488;0.152;2022-09-03T18:11:38;21.10;99.90
29731;DHT22;16639;51.488;0.152;2022-09-03T18:14:09;21.00;99.90
29731;DHT22;16639;51.488;0.152;2022-09-03T18:16:48;21.00;99.90
29731;DHT22;16639;51.488;0.152;2022-09-03T18:21:46;20.80;99.90
29731;DHT22;16639;51.488;0.152;2022-09-03T18:24:34;20.80;99.90
29731;DHT22;16639;51.488;0.152;2022-09-03T18:27:26;20.80;99.90
29731;DHT22;16639;51.488;0.152;2022-09-03T18:30:15;20.80;99.90
29731;DHT22;16639;51.488;0.152;2022-09-03T18:33:00;20.70;99.90
29731;DHT22;16639;51.488;0.152;2022-09-03T18:35:46;20.70;99.90
29731;DHT22;16639;51.488;0.152;2022-09-03T18:38:33;20.70;99.90
29731;DHT22;16639;51.488;0.152;2022-09-03T18:47:05;20.60;99.90
29731;DHT22;16639;51.488;0.152;2022-09-03T18:50:18;20.60;99.90
29731;DHT22;16639;51.488;0.152;2022-09-03T18:56:14;20.50;99.90
29731;DHT22;16639;51.488;0.152;2022-09-03T19:01:55;20.50;99.90
29731;DHT22;16639;51.488;0.152;2022-09-03T19:10:33;20.70;99.90
29731;DHT22;16639;51.488;0.152;2022-09-03T19:13:26;20.40;99.90
29731;DHT22;16639;51.488;0.152;2022-09-03T19:21:55;20.30;99.90
29731;DHT22;16639;51.488;0.152;2022-09-03T19:24:44;20.20;99.90
29731;DHT22;16639;51.488;0.152;2022-09-03T19:27:35;20.10;99.90
29731;DHT22;16639;51.488;0.152;2022-09-03T19:30:37;20.20;99.90
29731;DHT22;16639;51.488;0.152;2022-09-03T19:36:43;20.10;99.90
29731;DHT22;16639;51.488;0.152;2022-09-03T19:45:21;20.10;99.90
29731;DHT22;16639;51.488;0.152;2022-09-03T19:51:05;20.00;99.90
29731;DHT22;16639;51.488;0.152;2022-09-03T19:53:53;20.30;99.90
29731;DHT22;16639;51.488;0.152;2022-09-03T19:56:39;19.90;99.90
29731;DHT22;16639;51.488;0.152;2022-09-03T19:59:34;19.90;99.90
29731;DHT22;16639;51.488;0.152;2022-09-03T20:02:21;19.80;99.90
29731;DHT22;16639;51.488;0.152;2022-09-03T20:05:09;19.80;99.90
29731;DHT22;16639;51.488;0.152;2022-09-03T20:07:56;19.70;99.90
29731;DHT22;16639;51.488;0.152;2022-09-03T20:10:42;19.70;99.90
29731;DHT22;16639;51.488;0.152;2022-09-03T20:13:11;19.70;99.90
29731;DHT22;16639;51.488;0.152;2022-09-03T20:15:44;19.60;99.90
29731;DHT22;16639;51.488;0.152;2022-09-03T20:18:20;19.60;99.90
29731;DHT22;16639;51.488;0.152;2022-09-03T20:23:29;20.20;99.90
29731;DHT22;16639;51.488;0.152;2022-09-03T20:31:13;19.50;99.90
29731;DHT22;16639;51.488;0.152;2022-09-03T20:38:50;19.40;99.90
29731;DHT22;16639;51.488;0.152;2022-09-03T20:41:27;19.40;99.90
29731;DHT22;16639;51.488;0.152;2022-09-03T20:44:18;19.30;99.90
29731;DHT22;16639;51.488;0.152;2022-09-03T20:49:28;19.30;99.90
29731;DHT22;16639;51.488;0.152;2022-09-03T20:52:07;19.20;99.90
29731;DHT22;16639;51.488;0.152;2022-09-03T20:54:36;19.20;99.90
29731;DHT22;16639;51.488;0.152;2022-09-03T20:57:26;19.20;99.90
29731;DHT22;16639;51.488;0.152;2022-09-03T21:00:11;19.30;99.90
29731;DHT22;16639;51.488;0.152;2022-09-03T21:02:44;19.10;99.90
29731;DHT22;16639;51.488;0.152;2022-09-03T21:10:49;19.10;99.90
29731;DHT22;16639;51.488;0.152;2022-09-03T21:15:57;19.00;99.90
29731;DHT22;16639;51.488;0.152;2022-09-03T21:23:32;18.90;99.90
29731;DHT22;16639;51.488;0.152;2022-09-03T21:26:12;18.80;99.90
29731;DHT22;16639;51.488;0.152;2022-09-03T21:28:45;18.90;99.90
29731;DHT22;16639;51.488;0.152;2022-09-03T21:33:45;19.50;99.90
29731;DHT22;16639;51.488;0.152;2022-09-03T21:36:14;18.80;99.90
29731;DHT22;16639;51.488;0.152;2022-09-03T21:38:44;18.80;99.90
29731;DHT22;16639;51.488;0.152;2022-09-03T21:41:22;18.80;99.90
29731;DHT22;16639;51.488;0.152;2022-09-03T21:44:00;18.70;99.90
29731;DHT22;16639;51.488;0.152;2022-09-03T21:48:58;18.60;99.90